Time;durP1;ratioP1;P1;durP2;ratioP2;P2;SDS_P1;SDS_P2;PMS_P1;PMS_P2;Temp;Humidity;BMP_temperature;BMP_pressure;BME280_temperature;BME280_humidity;BME280_pressure;Samples;Min_cycle;Max_cycle;Signal;HPM_P1;HPM_P2
2022/02/02 00:03:18;;;;;;;4.50;1.70;;;;;;;2.46;69.26;97237.13;220987;1279;138679;-57
2022/02/02 00:08:33;;;;;;;4.00;1.90;;;;;;;2.50;69.41;97227.24;220818;1277;140202;-59
2022/02/02 00:13:43;;;;;;;3.10;1.60;;;;;;;2.56;69.48;97220.45;220751;1279;140571;-59
2022/02/02 00:18:54;;;;;;;2.70;1.30;;;;;;;2.58;69.53;97214.70;220765;1280;139363;-58
2022/02/02 00:24:03;;;;;;;3.20;1.60;;;;;;;2.54;69.45;97214.77;220594;1277;138726;-58
2022/02/02 00:29:14;;;;;;;183.50;90.90;;;;;;;2.49;69.75;97215.09;220679;1279;139243;-57
2022/02/02 00:34:22;;;;;;;4.30;2.60;;;;;;;2.55;70.06;97221.87;220700;1278;142148;-61
2022/02/02 00:39:28;;;;;;;2.40;1.30;;;;;;;2.62;69.90;97213.65;220841;1279;139205;-60
2022/02/02 00:44:33;;;;;;;1.90;1.30;;;;;;;2.60;69.93;97210.05;220937;1275;139183;-57
2022/02/02 00:49:40;;;;;;;3.00;1.40;;;;;;;2.55;70.11;97207.55;221077;1277;138537;-59
2022/02/02 00:54:44;;;;;;;1.60;1.10;;;;;;;2.50;70.17;97201.56;220685;1278;138489;-58
2022/02/02 00:59:46;;;;;;;1.70;1.20;;;;;;;2.45;70.25;97198.66;220675;1280;139413;-59
2022/02/02 01:04:50;;;;;;;2.30;1.30;;;;;;;2.47;70.43;97220.64;221182;1277;138656;-59
2022/02/02 01:30:53;;;;;;;2.40;1.40;;;;;;;2.48;70.71;97187.09;220585;1281;138639;-62
2022/02/02 01:35:57;;;;;;;3.10;1.50;;;;;;;2.44;70.64;97187.73;221060;1277;139402;-58
2022/02/02 01:41:06;;;;;;;2.70;1.60;;;;;;;2.46;70.90;97182.69;220772;1277;139800;-57
2022/02/02 01:46:14;;;;;;;4.40;1.40;;;;;;;2.50;71.02;97177.36;220913;1278;140438;-58
2022/02/02 01:56:23;;;;;;;;;;;;;;;2.50;70.98;97178.27;221091;1277;138322;-58
2022/02/02 02:01:30;;;;;;;3.40;1.60;;;;;;;2.47;70.93;97182.11;221157;1277;124733;-61
2022/02/02 02:06:33;;;;;;;2.70;1.40;;;;;;;2.48;71.06;97180.83;220727;1279;138637;-60
2022/02/02 02:11:42;;;;;;;3.40;1.80;;;;;;;2.56;71.15;97187.86;221194;1277;140347;-58
2022/02/02 02:16:46;;;;;;;2.60;1.60;;;;;;;2.65;71.24;97173.51;221226;1277;139163;-56
2022/02/02 02:21:51;;;;;;;2.70;2.00;;;;;;;2.68;71.23;97173.86;221084;1277;152016;-57
2022/02/02 02:26:54;;;;;;;2.80;1.40;;;;;;;2.66;71.13;97187.27;220457;1279;475367;-55
2022/02/02 02:32:15;;;;;;;3.10;1.60;;;;;;;2.66;71.37;97179.77;220772;1280;138469;-58
2022/02/02 03:30:07;;;;;;;2.10;1.40;;;;;;;3.12;71.17;97204.30;220687;1280;138643;-61
2022/02/02 05:52:15;;;;;;;3.60;1.80;;;;;;;3.64;71.57;97266.60;220742;1280;138557;-59
2022/02/02 05:57:20;;;;;;;4.10;1.70;;;;;;;3.61;71.60;97266.06;220690;1279;138975;-58
2022/02/02 06:02:30;;;;;;;3.70;1.90;;;;;;;3.58;71.55;97265.92;220862;1279;139182;-59
2022/02/02 06:07:39;;;;;;;4.00;2.10;;;;;;;3.57;71.68;97275.47;220531;1278;138940;-60
2022/02/02 06:12:44;;;;;;;3.40;2.10;;;;;;;3.52;71.60;97282.92;220803;1277;138857;-57
2022/02/02 06:17:50;;;;;;;5.20;2.60;;;;;;;3.50;71.73;97281.66;220844;1279;138448;-58
2022/02/02 06:23:12;;;;;;;4.30;2.60;;;;;;;3.50;71.82;97292.71;220494;1280;138653;-58
2022/02/02 06:28:23;;;;;;;5.60;2.60;;;;;;;3.49;71.89;97298.39;220528;1279;139884;-58
2022/02/02 06:33:35;;;;;;;5.70;2.50;;;;;;;3.52;71.82;97299.39;220846;1277;139225;-58
2022/02/02 06:38:39;;;;;;;8.90;3.00;;;;;;;3.52;72.04;97304.85;221113;1277;138782;-59
2022/02/02 06:43:44;;;;;;;5.60;2.80;;;;;;;3.52;72.07;97311.86;220712;1279;138581;-58
2022/02/02 06:48:47;;;;;;;4.90;2.60;;;;;;;3.52;71.92;97326.25;220469;1280;138019;-59
2022/02/02 06:54:01;;;;;;;6.70;2.60;;;;;;;3.58;72.31;97328.48;220804;1277;139323;-58
2022/02/02 07:10:17;;;;;;;7.10;2.80;;;;;;;3.69;72.04;97334.36;220970;1277;139489;-58
2022/02/02 07:15:28;;;;;;;7.70;3.10;;;;;;;3.73;72.01;97339.85;220824;1278;139693;-59
2022/02/02 07:20:52;;;;;;;6.90;3.50;;;;;;;3.78;72.28;97352.32;220788;1277;139678;-59
2022/02/02 07:31:21;;;;;;;6.20;3.40;;;;;;;3.86;72.34;97360.11;220829;1277;139684;-59
2022/02/02 07:36:34;;;;;;;8.40;3.40;;;;;;;3.87;72.36;97363.18;221073;1277;142087;-58
2022/02/02 07:41:47;;;;;;;7.00;3.80;;;;;;;3.87;71.89;97357.23;220882;1277;139217;-59
2022/02/02 07:46:54;;;;;;;6.40;3.30;;;;;;;3.91;72.24;97364.31;220496;1280;139019;-59
2022/02/02 07:51:57;;;;;;;9.80;3.90;;;;;;;3.95;72.03;97368.15;220757;1279;140255;-60
2022/02/02 07:57:16;;;;;;;11.70;5.50;;;;;;;4.05;72.59;97358.76;220786;1277;139460;-62
2022/02/02 08:02:24;;;;;;;7.00;4.30;;;;;;;4.07;72.09;97360.92;220522;1279;139274;-56
2022/02/02 08:07:36;;;;;;;9.20;4.60;;;;;;;4.03;72.12;97366.23;220732;1278;138975;-59
2022/02/02 08:12:49;;;;;;;12.10;4.40;;;;;;;4.05;72.05;97368.21;220561;1280;140638;-58
2022/02/02 08:17:54;;;;;;;74.60;41.60;;;;;;;4.12;72.25;97370.94;220767;1279;139539;-56
2022/02/02 08:22:58;;;;;;;9.70;5.40;;;;;;;4.29;72.67;97378.48;220691;1277;139483;-56
2022/02/02 08:28:04;;;;;;;10.90;4.70;;;;;;;4.31;72.15;97383.78;220851;1277;138966;-59
2022/02/02 08:33:13;;;;;;;9.60;4.20;;;;;;;4.23;71.69;97386.54;220800;1277;139932;-59
2022/02/02 08:38:40;;;;;;;8.80;3.80;;;;;;;4.20;71.96;97380.42;220965;1277;139637;-58
2022/02/02 08:43:56;;;;;;;9.20;4.30;;;;;;;4.19;72.30;97385.05;220838;1277;139473;-58
2022/02/02 08:49:03;;;;;;;13.00;6.10;;;;;;;4.21;72.29;97387.54;220778;1279;138542;-57
2022/02/02 08:54:18;;;;;;;11.70;4.80;;;;;;;4.28;72.30;97387.30;220975;1277;138694;-56
2022/02/02 09:10:10;;;;;;;9.80;5.10;;;;;;;4.32;72.11;97407.05;220569;1280;139035;-58
2022/02/02 09:36:30;;;;;;;9.50;4.70;;;;;;;4.19;71.93;97441.55;220944;1277;140699;-58
2022/02/02 09:41:40;;;;;;;14.20;6.40;;;;;;;4.20;72.48;97450.48;220800;1277;138835;-58
2022/02/02 09:52:16;;;;;;;63.30;35.00;;;;;;;4.30;72.29;97461.24;220573;1279;138608;-59
2022/02/02 09:57:50;;;;;;;9.50;5.10;;;;;;;4.34;72.32;97459.92;220882;1277;140476;-57
2022/02/02 10:08:50;;;;;;;12.30;5.30;;;;;;;4.27;71.85;97466.18;220811;1277;138695;-59
2022/02/02 10:14:03;;;;;;;12.10;5.30;;;;;;;4.19;71.66;97469.83;221056;1277;139312;-59
2022/02/02 10:19:20;;;;;;;12.60;5.00;;;;;;;4.14;71.61;97482.44;220843;1277;139960;-60
2022/02/02 10:24:43;;;;;;;10.40;5.50;;;;;;;4.12;71.83;97484.50;220899;1277;142224;-57
2022/02/02 10:29:46;;;;;;;10.90;5.30;;;;;;;4.18;72.06;97480.81;220620;1279;140951;-57
2022/02/02 10:34:49;;;;;;;17.70;8.70;;;;;;;4.27;72.28;97480.05;220962;1278;139159;-57
2022/02/02 10:39:52;;;;;;;11.60;5.80;;;;;;;4.42;72.47;97472.10;220804;1279;139092;-57
2022/02/02 10:44:59;;;;;;;12.20;6.00;;;;;;;4.51;72.35;97474.88;220775;1279;141956;-56
2022/02/02 10:56:06;;;;;;;16.30;6.20;;;;;;;4.70;72.32;97473.30;220399;1278;140512;-59
2022/02/02 11:01:31;;;;;;;18.00;6.50;;;;;;;4.96;72.78;97469.53;220834;1279;139243;-57
2022/02/02 11:11:45;;;;;;;15.70;6.40;;;;;;;5.26;72.10;97465.45;221046;1277;139209;-56
2022/02/02 11:16:54;;;;;;;82.90;42.40;;;;;;;5.32;72.04;97473.55;220998;1277;138736;-57
2022/02/02 11:22:20;;;;;;;13.10;6.30;;;;;;;5.41;72.00;97477.34;220796;1279;139807;-58
2022/02/02 11:27:39;;;;;;;14.50;5.90;;;;;;;5.49;71.82;97476.64;220868;1277;139313;-57
2022/02/02 11:32:45;;;;;;;16.20;5.90;;;;;;;5.46;71.83;97485.24;220911;1279;139577;-57
2022/02/02 11:38:01;;;;;;;10.60;5.30;;;;;;;5.46;71.48;97491.21;220817;1279;139331;-57
2022/02/02 11:43:12;;;;;;;14.60;5.50;;;;;;;5.49;71.65;97497.58;220752;1279;138973;-61
2022/02/02 11:48:55;;;;;;;13.20;5.50;;;;;;;5.55;71.48;97506.52;220953;1277;138583;-61
2022/02/02 11:54:01;;;;;;;9.80;5.00;;;;;;;5.62;71.30;97511.10;220999;1277;139406;-58
2022/02/02 11:59:35;;;;;;;15.00;5.00;;;;;;;5.66;71.02;97509.41;220750;1278;139608;-58
2022/02/02 12:54:52;;;;;;;11.00;3.80;;;;;;;6.14;69.73;97549.52;220876;1277;138597;-57
2022/02/02 13:04:43;;;;;;;18.60;7.60;;;;;;;6.04;69.86;97576.40;221093;1277;139981;-57
2022/02/02 13:09:49;;;;;;;9.60;3.80;;;;;;;5.98;69.13;97591.65;220835;1277;139742;-58
2022/02/02 13:15:23;;;;;;;10.50;3.60;;;;;;;5.88;69.07;97614.41;220729;1279;139447;-58
2022/02/02 13:20:39;;;;;;;8.10;3.40;;;;;;;5.76;69.03;97610.11;221109;1277;139875;-58
2022/02/02 13:25:44;;;;;;;9.40;3.20;;;;;;;5.56;68.66;97612.45;220696;1279;141155;-60
2022/02/02 13:30:52;;;;;;;10.20;3.20;;;;;;;5.40;69.03;97628.59;220719;1279;138836;-58
2022/02/02 13:36:17;;;;;;;9.30;2.70;;;;;;;5.37;69.38;97635.66;220800;1277;139561;-58
2022/02/02 13:47:05;;;;;;;7.00;2.40;;;;;;;5.48;69.55;97655.77;220704;1280;139361;-59
2022/02/02 14:35:33;;;;;;;12.40;5.40;;;;;;;5.33;69.11;97724.71;220739;1280;138750;-57
2022/02/02 14:41:46;;;;;;;8.90;4.40;;;;;;;5.37;69.19;97727.09;220498;1280;141126;-58
2022/02/02 14:46:11;;;;;;;12.20;5.60;;;;;;;5.44;69.33;97736.36;220530;1279;139791;-60
2022/02/02 15:05:20;;;;;;;9.00;3.40;;;;;;;5.50;69.02;97749.90;220779;1280;139235;-57
2022/02/02 15:28:50;;;;;;;18.80;7.40;;;;;;;5.22;68.86;97825.80;220863;1277;138755;-58
2022/02/02 15:33:56;;;;;;;17.90;6.10;;;;;;;5.30;69.32;97846.44;220819;1279;139371;-59
2022/02/02 15:39:05;;;;;;;14.70;4.70;;;;;;;5.31;68.92;97855.70;220912;1279;138730;-60
2022/02/02 16:05:00;;;;;;;11.80;5.20;;;;;;;5.13;68.70;97913.56;220883;1277;138452;-57
2022/02/02 16:10:06;;;;;;;7.80;4.20;;;;;;;5.06;68.65;97941.92;221150;1277;139341;-59
2022/02/02 16:35:57;;;;;;;9.50;4.30;;;;;;;4.79;68.79;98019.02;220586;1279;140067;-57
2022/02/02 16:41:05;;;;;;;9.70;4.20;;;;;;;4.67;68.48;98031.25;220567;1279;139317;-60
2022/02/02 16:46:08;;;;;;;9.00;4.80;;;;;;;4.58;68.97;98047.00;220621;1279;138569;-63
2022/02/02 16:51:12;;;;;;;9.60;4.40;;;;;;;4.53;69.09;98059.20;220146;1281;138482;-59
2022/02/02 17:34:01;;;;;;;7.40;4.10;;;;;;;4.35;69.06;98149.39;220774;1278;138365;-61
2022/02/02 17:39:10;;;;;;;6.50;3.70;;;;;;;4.25;68.96;98160.42;220728;1277;139377;-59
2022/02/02 17:44:37;;;;;;;6.90;4.00;;;;;;;4.15;69.18;98165.66;220727;1277;139183;-59
2022/02/02 18:01:22;;;;;;;10.80;5.60;;;;;;;4.29;69.42;98184.98;220658;1277;140125;-59
2022/02/02 18:22:06;;;;;;;8.10;4.40;;;;;;;4.18;68.94;98234.89;221068;1277;138676;-58
2022/02/02 18:27:18;;;;;;;8.70;4.70;;;;;;;4.16;68.92;98257.40;220767;1277;138566;-58
2022/02/02 18:32:39;;;;;;;7.90;4.40;;;;;;;4.16;68.81;98278.80;220820;1277;139620;-60
2022/02/02 18:43:21;;;;;;;63.30;44.50;;;;;;;4.35;69.51;98295.81;221064;1277;139087;-58
2022/02/02 18:48:32;;;;;;;16.90;9.00;;;;;;;4.62;69.82;98304.68;220870;1277;139281;-61
2022/02/02 19:04:30;;;;;;;11.90;6.50;;;;;;;4.44;68.31;98358.08;221001;1277;139124;-59
2022/02/02 20:08:47;;;;;;;10.20;5.10;;;;;;;3.97;67.23;98505.61;220621;1277;138638;-59
2022/02/02 20:13:50;;;;;;;9.00;4.80;;;;;;;3.93;67.35;98516.29;221056;1277;138958;-60
2022/02/02 20:18:56;;;;;;;9.80;5.30;;;;;;;3.94;67.43;98519.94;220537;1279;139333;-59
2022/02/02 20:24:02;;;;;;;10.50;5.30;;;;;;;3.97;67.33;98526.33;220721;1280;140096;-59
2022/02/02 20:29:05;;;;;;;;;;;;;;;4.01;67.22;98535.98;220879;1279;138767;-58
2022/02/02 20:34:13;;;;;;;108.50;64.10;;;;;;;3.96;67.17;98553.55;221124;1277;126098;-61
2022/02/02 20:39:36;;;;;;;15.50;8.20;;;;;;;4.11;67.59;98566.45;220832;1277;138998;-59
2022/02/02 21:11:18;;;;;;;13.60;6.40;;;;;;;4.01;66.66;98634.23;220948;1277;140194;-58
2022/02/02 21:16:27;;;;;;;11.20;5.70;;;;;;;4.08;66.93;98646.80;221012;1277;138673;-59
2022/02/02 21:21:51;;;;;;;8.50;5.20;;;;;;;4.12;66.69;98651.69;220680;1279;138795;-57
2022/02/02 21:31:58;;;;;;;11.40;5.70;;;;;;;4.14;66.17;98671.80;220853;1278;139729;-59
2022/02/02 21:37:04;;;;;;;9.90;5.60;;;;;;;4.13;66.12;98680.63;220947;1276;140781;-59
2022/02/02 21:42:13;;;;;;;12.40;6.20;;;;;;;4.08;66.28;98688.38;221078;1277;140928;-59
2022/02/02 21:47:16;;;;;;;15.50;6.70;;;;;;;3.99;66.23;98702.09;220796;1279;138665;-59
2022/02/02 21:52:19;;;;;;;13.70;7.60;;;;;;;3.91;66.02;98713.46;220793;1278;139251;-60
2022/02/02 21:57:22;;;;;;;16.40;7.90;;;;;;;3.91;66.59;98718.92;220899;1278;139905;-60
2022/02/02 22:02:26;;;;;;;16.50;9.10;;;;;;;3.93;66.46;98733.02;220801;1279;140212;-59
2022/02/02 22:07:30;;;;;;;14.20;7.70;;;;;;;3.97;66.61;98748.50;221016;1277;138921;-59
2022/02/02 22:12:36;;;;;;;14.40;8.20;;;;;;;3.94;66.62;98753.52;221198;1277;141224;-60
2022/02/02 22:17:41;;;;;;;16.00;8.30;;;;;;;3.87;66.43;98761.91;220694;1279;140005;-60
2022/02/02 22:22:46;;;;;;;14.50;8.10;;;;;;;3.83;66.88;98767.48;221110;1277;139163;-59
2022/02/02 22:27:49;;;;;;;12.70;7.50;;;;;;;3.84;66.69;98779.05;220988;1277;138460;-58
2022/02/02 22:32:52;;;;;;;13.60;7.60;;;;;;;3.78;66.74;98785.91;220945;1277;139548;-58
2022/02/02 22:37:55;;;;;;;13.60;6.90;;;;;;;3.77;66.77;98800.33;220911;1279;139244;-58
2022/02/02 22:42:58;;;;;;;14.10;7.50;;;;;;;3.76;66.53;98810.73;221047;1277;139537;-58
2022/02/02 22:48:01;;;;;;;15.40;7.50;;;;;;;3.77;66.76;98817.52;221060;1277;140089;-57
2022/02/02 22:53:04;;;;;;;12.90;6.60;;;;;;;3.84;66.71;98816.91;220962;1277;139858;-60
2022/02/02 22:58:07;;;;;;;11.90;6.80;;;;;;;3.90;66.85;98826.52;220589;1280;139449;-59
2022/02/02 23:03:14;;;;;;;13.00;7.40;;;;;;;3.95;66.58;98833.52;220964;1277;138956;-59
2022/02/02 23:08:19;;;;;;;14.60;7.40;;;;;;;3.96;66.62;98842.27;221191;1277;138783;-59
2022/02/02 23:13:22;;;;;;;13.90;7.20;;;;;;;3.96;66.67;98842.09;221189;1278;138543;-59
2022/02/02 23:18:29;;;;;;;11.10;6.50;;;;;;;3.93;66.46;98848.15;220884;1279;139281;-60
2022/02/02 23:23:45;;;;;;;11.50;6.40;;;;;;;3.90;66.78;98859.87;221020;1277;138663;-61
2022/02/02 23:28:51;;;;;;;11.40;6.70;;;;;;;3.86;66.50;98861.08;220960;1276;140033;-58
2022/02/02 23:33:54;;;;;;;12.60;7.90;;;;;;;3.80;66.95;98862.19;220802;1279;139097;-58
2022/02/02 23:38:57;;;;;;;15.20;7.20;;;;;;;3.81;66.70;98868.98;220806;1278;139161;-59
2022/02/02 23:44:01;;;;;;;12.10;6.10;;;;;;;3.89;67.14;98875.34;221205;1277;139286;-62
2022/02/02 23:49:08;;;;;;;9.60;5.70;;;;;;;3.91;66.89;98875.98;221106;1277;139050;-58
2022/02/02 23:54:11;;;;;;;10.20;5.60;;;;;;;3.86;66.73;98887.05;220882;1277;139509;-59
2022/02/02 23:59:39;;;;;;;8.60;5.30;;;;;;;3.78;66.68;98888.39;220831;1279;138858;-59
